Time,TemperatureF,DewpointF,PressureIn,WindDirection,WindDirectionDegrees,WindSpeedMPH,WindSpeedGustMPH,Humidity,HourlyPrecipIn,Conditions,Clouds,dailyrainin,SolarRadiationWatts/m^2,SoftwareType,DateUTC
2013-04-25 00:01:00,39.7,34.7,29.93,SSW,211,12.7,12.7,82,0.00,OVC,,0.00,0.0,WeatherDisplay:10.37,2013-04-25 05:01:00,
2013-04-25 00:06:00,39.6,34.8,29.93,SSW,207,15.0,15.0,83,0.00,-RA,OVC,0.00,0.0,WeatherDisplay:10.37,2013-04-25 05:06:00,
2013-04-25 00:11:00,39.6,35.1,29.93,SSW,201,11.5,11.5,84,0.00,-RA,OVC,0.00,0.0,WeatherDisplay:10.37,2013-04-25 05:11:00,
2013-04-25 00:16:00,39.6,35.4,29.93,SSW,200,12.7,12.7,85,0.00,-RA,OVC,0.00,0.0,WeatherDisplay:10.37,2013-04-25 05:16:00,
2013-04-25 00:21:00,39.4,35.5,29.93,SW,222,13.8,13.8,86,0.00,-RA,OVC,0.00,0.0,WeatherDisplay:10.37,2013-04-25 05:21:00,
2013-04-25 00:26:00,39.4,35.8,29.93,West,278,15.0,15.0,87,0.00,-RA,OVC,0.00,0.0,WeatherDisplay:10.37,2013-04-25 05:26:00,
2013-04-25 00:31:00,39.2,36.2,29.93,SSW,210,9.2,9.2,89,0.00,-RA,OVC,0.00,0.0,WeatherDisplay:10.37,2013-04-25 05:31:00,
2013-04-25 00:36:00,39.2,36.2,29.93,SSW,196,11.5,11.5,89,0.00,-RA,OVC,0.00,0.0,WeatherDisplay:10.37,2013-04-25 05:36:00,
2013-04-25 00:41:00,39.2,36.5,29.93,SSW,203,12.7,12.7,90,0.00,-RA,OVC,0.00,0.0,WeatherDisplay:10.37,2013-04-25 05:41:00,
2013-04-25 00:46:00,39.2,36.8,29.93,South,172,10.4,10.4,91,0.00,-RA,OVC,0.00,0.0,WeatherDisplay:10.37,2013-04-25 05:46:00,
2013-04-25 00:51:00,39.2,36.8,29.93,South,182,11.5,11.5,91,0.00,-RA,OVC,0.00,0.0,WeatherDisplay:10.37,2013-04-25 05:51:00,
2013-04-25 00:56:00,39.2,36.8,29.93,SW,214,11.5,11.5,91,0.00,-RA,OVC,0.00,0.0,WeatherDisplay:10.37,2013-04-25 05:56:00,
2013-04-25 01:01:00,39.2,37.1,29.93,SW,236,8.1,8.1,92,0.00,-RA,OVC,0.00,0.0,WeatherDisplay:10.37,2013-04-25 06:01:00,
2013-04-25 01:06:00,39.0,36.9,29.93,SSW,198,8.1,8.1,92,0.00,-RA,OVC,0.00,0.0,WeatherDisplay:10.37,2013-04-25 06:06:00,
2013-04-25 01:11:00,38.8,38.1,29.93,WNW,285,4.6,4.6,97,0.00,-RA,OVC,0.00,0.0,WeatherDisplay:10.37,2013-04-25 06:11:00,
2013-04-25 01:16:00,38.1,37.6,29.93,WNW,297,3.5,3.6,98,0.00,-RA,OVC,0.00,0.0,WeatherDisplay:10.37,2013-04-25 06:16:00,
2013-04-25 01:21:00,37.8,37.8,29.93,NW,320,6.9,6.9,100,0.00,-RA,OVC,0.00,0.0,WeatherDisplay:10.37,2013-04-25 06:21:00,
2013-04-25 01:26:00,37.2,37.2,29.96,NNW,330,8.1,8.1,100,0.00,-RA,OVC,0.00,0.0,WeatherDisplay:10.37,2013-04-25 06:26:00,
2013-04-25 01:31:00,36.9,36.9,29.96,NW,306,3.5,3.5,100,0.00,-RA,OVC,0.00,0.0,WeatherDisplay:10.37,2013-04-25 06:31:00,
2013-04-25 01:36:00,36.1,36.1,29.96,West,271,0.0,0.0,100,0.00,-RA,OVC,0.00,0.0,WeatherDisplay:10.37,2013-04-25 06:36:00,
2013-04-25 01:41:00,35.6,35.6,29.96,WNW,291,3.5,0.0,100,0.04,-RA,OVC,0.04,0.0,WeatherDisplay:10.37,2013-04-25 06:41:00,
2013-04-25 01:46:00,35.1,35.1,29.96,WSW,238,3.5,3.5,100,0.04,-RA,OVC,0.04,0.0,WeatherDisplay:10.37,2013-04-25 06:46:00,
2013-04-25 01:51:00,34.9,34.9,29.96,WSW,238,2.3,0.0,100,0.04,-RA,OVC,0.04,0.0,WeatherDisplay:10.37,2013-04-25 06:51:00,
2013-04-25 01:56:00,34.7,34.7,29.96,WSW,253,3.5,0.0,100,0.04,-RA,OVC,0.04,0.0,WeatherDisplay:10.37,2013-04-25 06:56:00,
2013-04-25 02:01:00,34.7,34.7,29.96,WNW,294,2.3,0.0,100,0.04,-RA,OVC,0.04,0.0,WeatherDisplay:10.37,2013-04-25 07:01:00,
2013-04-25 02:06:00,34.7,34.7,29.96,WNW,294,0.0,0.0,100,0.04,OVC,,0.04,0.0,WeatherDisplay:10.37,2013-04-25 07:06:00,
2013-04-25 02:11:00,34.7,34.7,29.96,WNW,290,0.0,0.0,100,0.04,OVC,,0.04,0.0,WeatherDisplay:10.37,2013-04-25 07:11:00,
2013-04-25 02:16:00,34.7,34.7,29.96,WNW,290,0.0,0.0,100,0.04,-RA,OVC,0.04,0.0,WeatherDisplay:10.37,2013-04-25 07:16:00,
2013-04-25 02:21:00,34.7,34.7,29.96,WSW,245,2.3,0.0,100,0.04,-RA,OVC,0.04,0.0,WeatherDisplay:10.37,2013-04-25 07:21:00,
2013-04-25 02:26:00,34.7,34.7,29.96,SW,234,3.5,0.0,100,0.04,-RA,OVC,0.04,0.0,WeatherDisplay:10.37,2013-04-25 07:26:00,
2013-04-25 02:31:00,34.7,34.7,29.96,WNW,303,0.0,0.0,100,0.04,-RA,OVC,0.04,0.0,WeatherDisplay:10.37,2013-04-25 07:31:00,
2013-04-25 02:36:00,34.7,34.7,29.96,WSW,256,3.5,3.5,100,0.04,-RA,OVC,0.04,0.0,WeatherDisplay:10.37,2013-04-25 07:36:00,
2013-04-25 02:41:00,34.7,34.7,29.96,West,281,0.0,0.0,100,0.00,-RA,OVC,0.04,0.0,WeatherDisplay:10.37,2013-04-25 07:41:00,
2013-04-25 02:46:00,34.7,34.7,29.96,NNW,344,0.0,0.0,100,0.00,-RA,OVC,0.04,0.0,WeatherDisplay:10.37,2013-04-25 07:46:00,
2013-04-25 02:51:00,34.7,34.7,29.96,West,281,3.5,3.5,100,0.00,-RA,OVC,0.04,0.0,WeatherDisplay:10.37,2013-04-25 07:51:00,
2013-04-25 02:56:00,34.9,34.9,29.99,West,269,0.0,0.0,100,0.00,-RA,OVC,0.04,0.0,WeatherDisplay:10.37,2013-04-25 07:56:00,
2013-04-25 03:01:00,34.9,34.9,29.99,WNW,300,3.5,0.0,100,0.00,-RA,OVC,0.04,0.0,WeatherDisplay:10.37,2013-04-25 08:01:00,
2013-04-25 03:06:00,34.9,34.9,29.99,West,259,3.5,3.5,100,0.00,OVC,,0.04,0.0,WeatherDisplay:10.37,2013-04-25 08:06:00,
2013-04-25 03:11:00,34.9,34.9,29.99,NNW,339,2.3,0.0,100,0.00,OVC,,0.04,0.0,WeatherDisplay:10.37,2013-04-25 08:11:00,
2013-04-25 03:16:00,34.9,34.9,29.99,West,274,3.5,0.0,100,0.00,OVC,,0.04,0.0,WeatherDisplay:10.37,2013-04-25 08:16:00,
2013-04-25 03:21:00,34.9,34.9,29.99,WNW,285,3.5,0.0,100,0.00,OVC,,0.04,0.0,WeatherDisplay:10.37,2013-04-25 08:21:00,
2013-04-25 03:26:00,34.9,34.9,29.99,NW,304,2.3,0.0,100,0.00,OVC,,0.04,0.0,WeatherDisplay:10.37,2013-04-25 08:26:00,
2013-04-25 03:31:00,34.9,34.9,29.99,WNW,293,3.5,0.0,100,0.00,OVC,,0.04,0.0,WeatherDisplay:10.37,2013-04-25 08:31:00,
2013-04-25 03:36:00,34.9,34.9,29.99,SW,226,8.1,8.1,100,0.00,OVC,,0.04,0.0,WeatherDisplay:10.37,2013-04-25 08:36:00,
2013-04-25 03:41:00,34.9,34.9,29.99,West,260,0.0,0.0,100,0.00,OVC,,0.04,0.0,WeatherDisplay:10.37,2013-04-25 08:41:00,
2013-04-25 03:46:00,34.9,34.9,29.99,SW,231,2.3,0.0,100,0.00,OVC,,0.04,0.0,WeatherDisplay:10.37,2013-04-25 08:46:00,
2013-04-25 03:51:00,34.7,34.7,29.99,West,259,4.6,4.6,100,0.00,OVC,,0.04,0.0,WeatherDisplay:10.37,2013-04-25 08:51:00,
2013-04-25 03:56:00,34.7,34.7,29.99,WNW,301,3.5,3.5,100,0.00,OVC,,0.04,0.0,WeatherDisplay:10.37,2013-04-25 08:56:00,
2013-04-25 04:01:00,34.5,34.5,29.99,NW,317,3.5,0.0,100,0.00,OVC,,0.04,0.0,WeatherDisplay:10.37,2013-04-25 09:01:00,
2013-04-25 04:06:00,34.7,34.7,29.99,NW,304,4.6,4.6,100,0.00,OVC,,0.04,0.0,WeatherDisplay:10.37,2013-04-25 09:06:00,
2013-04-25 04:11:00,34.7,34.7,29.99,WSW,247,2.3,0.0,100,0.00,OVC,,0.04,0.0,WeatherDisplay:10.37,2013-04-25 09:11:00,
2013-04-25 04:16:00,34.7,34.7,29.99,NW,311,5.8,5.8,100,0.00,OVC,,0.04,0.0,WeatherDisplay:10.37,2013-04-25 09:16:00,
2013-04-25 04:21:00,34.7,34.7,29.99,WNW,295,3.5,3.5,100,0.00,OVC,,0.04,0.0,WeatherDisplay:10.37,2013-04-25 09:21:00,
2013-04-25 04:26:00,34.7,34.7,29.99,NW,309,0.0,0.0,100,0.00,OVC,,0.04,0.0,WeatherDisplay:10.37,2013-04-25 09:26:00,
2013-04-25 04:31:00,34.7,34.7,29.99,WNW,297,0.0,0.0,100,0.00,OVC,,0.04,0.0,WeatherDisplay:10.37,2013-04-25 09:31:00,
2013-04-25 04:36:00,34.5,34.5,29.99,NW,309,3.5,0.0,100,0.00,OVC,,0.04,0.0,WeatherDisplay:10.37,2013-04-25 09:36:00,
2013-04-25 04:41:00,34.3,34.3,30.02,NW,317,0.0,0.0,100,0.00,OVC,,0.04,0.0,WeatherDisplay:10.37,2013-04-25 09:41:00,
2013-04-25 04:46:00,34.3,34.3,30.02,NW,326,3.5,0.0,100,0.00,OVC,,0.04,0.0,WeatherDisplay:10.37,2013-04-25 09:46:00,
2013-04-25 04:51:00,34.2,34.2,30.02,WNW,295,0.0,0.0,100,0.00,OVC,,0.04,0.0,WeatherDisplay:10.37,2013-04-25 09:51:00,
2013-04-25 04:56:00,34.0,34.0,30.02,WNW,295,0.0,0.0,100,0.00,OVC,,0.04,0.0,WeatherDisplay:10.37,2013-04-25 09:56:00,
2013-04-25 05:01:00,34.0,34.0,30.02,WNW,295,0.0,0.0,100,0.00,OVC,,0.04,0.0,WeatherDisplay:10.37,2013-04-25 10:01:00,
2013-04-25 05:05:00,34.0,34.0,30.02,WNW,295,0.0,0.0,100,0.00,SCT,OVC,0.04,0.0,WeatherDisplay:10.37,2013-04-25 10:05:00,
2013-04-25 05:10:00,33.8,33.8,30.02,WNW,295,0.0,0.0,100,0.00,SCT,OVC,0.04,0.0,WeatherDisplay:10.37,2013-04-25 10:10:00,
2013-04-25 05:15:00,33.8,33.8,30.02,WNW,285,0.0,0.0,100,0.00,SCT,OVC,0.04,0.0,WeatherDisplay:10.37,2013-04-25 10:15:00,
2013-04-25 05:20:00,33.6,33.6,30.02,WNW,285,0.0,0.0,100,0.00,SCT,OVC,0.04,0.0,WeatherDisplay:10.37,2013-04-25 10:20:00,
2013-04-25 05:25:00,33.4,33.4,30.02,WNW,285,0.0,0.0,100,0.00,SCT,OVC,0.04,0.0,WeatherDisplay:10.37,2013-04-25 10:25:00,
2013-04-25 05:30:00,33.3,33.3,30.02,WNW,285,0.0,0.0,100,0.00,SCT,OVC,0.04,0.0,WeatherDisplay:10.37,2013-04-25 10:30:00,
2013-04-25 05:35:00,33.1,33.1,30.02,WNW,285,0.0,0.0,100,0.00,SCT,OVC,0.04,0.0,WeatherDisplay:10.37,2013-04-25 10:35:00,
2013-04-25 05:40:00,33.1,33.1,30.02,WNW,285,0.0,0.0,100,0.00,SCT,OVC,0.04,0.0,WeatherDisplay:10.37,2013-04-25 10:40:00,
2013-04-25 05:45:00,32.9,32.9,30.02,WNW,285,0.0,0.0,100,0.00,BKN,OVC,0.04,0.0,WeatherDisplay:10.37,2013-04-25 10:45:00,
2013-04-25 05:50:00,32.7,32.7,30.02,WNW,285,0.0,0.0,100,0.00,BKN,OVC,0.04,0.0,WeatherDisplay:10.37,2013-04-25 10:50:00,
2013-04-25 05:55:00,32.7,32.7,30.05,WNW,285,0.0,0.0,100,0.00,SCT,OVC,0.04,0.0,WeatherDisplay:10.37,2013-04-25 10:55:00,
2013-04-25 06:00:00,32.7,32.7,30.05,WNW,285,0.0,0.0,100,0.00,SCT,OVC,0.04,0.0,WeatherDisplay:10.37,2013-04-25 11:00:00,
2013-04-25 06:05:00,32.7,32.7,30.05,WNW,295,3.5,0.0,100,0.00,FEW,OVC,0.04,0.0,WeatherDisplay:10.37,2013-04-25 11:05:00,
2013-04-25 06:10:00,32.7,32.7,30.05,WNW,295,0.0,0.0,100,0.00,FEW,OVC,0.04,0.0,WeatherDisplay:10.37,2013-04-25 11:10:00,
2013-04-25 06:15:00,32.9,32.9,30.05,WNW,300,3.5,0.0,100,0.00,FEW,OVC,0.04,0.0,WeatherDisplay:10.37,2013-04-25 11:15:00,
2013-04-25 06:20:00,32.9,32.9,30.05,WNW,300,0.0,0.0,100,0.00,FEW,OVC,0.04,0.0,WeatherDisplay:10.37,2013-04-25 11:20:00,
2013-04-25 06:25:00,33.1,33.1,30.05,WNW,284,3.5,0.0,100,0.00,FEW,OVC,0.04,0.0,WeatherDisplay:10.37,2013-04-25 11:25:00,
2013-04-25 06:30:00,33.1,33.1,30.05,West,260,2.3,0.0,100,0.00,FEW,OVC,0.04,0.0,WeatherDisplay:10.37,2013-04-25 11:30:00,
2013-04-25 06:35:00,33.3,33.3,30.05,WNW,299,3.5,0.0,100,0.00,FEW,OVC,0.04,0.0,WeatherDisplay:10.37,2013-04-25 11:35:00,
2013-04-25 06:40:00,33.4,33.4,30.05,WNW,288,2.3,0.0,100,0.00,FEW,OVC,0.04,0.0,WeatherDisplay:10.37,2013-04-25 11:40:00,
2013-04-25 06:45:00,33.4,33.4,30.05,NW,308,2.3,0.0,100,0.00,FEW,OVC,0.04,0.0,WeatherDisplay:10.37,2013-04-25 11:45:00,
2013-04-25 06:50:00,33.4,33.4,30.05,NW,316,3.5,0.0,100,0.00,FEW,OVC,0.04,0.0,WeatherDisplay:10.37,2013-04-25 11:50:00,
2013-04-25 06:55:00,33.4,33.4,30.05,NW,325,3.5,0.0,100,0.00,FEW,OVC,0.04,0.0,WeatherDisplay:10.37,2013-04-25 11:55:00,
2013-04-25 07:00:00,33.6,33.6,30.05,NW,314,3.5,0.0,100,0.00,FEW,OVC,0.04,0.0,WeatherDisplay:10.37,2013-04-25 12:00:00,
2013-04-25 07:05:00,33.6,33.6,30.05,NW,314,0.0,0.0,100,0.00,CLR,OVC,0.04,0.0,WeatherDisplay:10.37,2013-04-25 12:05:00,
2013-04-25 07:10:00,33.8,33.8,30.05,NW,320,3.5,0.0,100,0.00,CLR,OVC,0.04,0.0,WeatherDisplay:10.37,2013-04-25 12:10:00,
2013-04-25 07:15:00,34.0,34.0,30.05,NW,321,3.5,0.0,100,0.00,CLR,OVC,0.04,0.0,WeatherDisplay:10.37,2013-04-25 12:15:00,
2013-04-25 07:20:00,34.0,34.0,30.05,NNW,328,3.5,3.5,100,0.00,CLR,OVC,0.04,0.0,WeatherDisplay:10.37,2013-04-25 12:20:00,
2013-04-25 07:25:00,34.0,34.0,30.05,NW,325,3.5,0.0,100,0.00,BKN,OVC,0.04,0.0,WeatherDisplay:10.37,2013-04-25 12:25:00,
2013-04-25 07:30:00,34.2,33.9,30.08,NW,325,2.3,2.3,99,0.00,BKN,OVC,0.04,0.0,WeatherDisplay:10.37,2013-04-25 12:30:00,
2013-04-25 07:35:00,34.3,33.8,30.08,NW,313,0.0,0.0,98,0.00,BKN,OVC,0.04,0.0,WeatherDisplay:10.37,2013-04-25 12:35:00,
2013-04-25 07:40:00,34.3,33.8,30.08,North,349,3.5,3.5,98,0.00,BKN,OVC,0.04,0.0,WeatherDisplay:10.37,2013-04-25 12:40:00,
2013-04-25 07:45:00,34.5,33.8,30.08,NW,319,2.3,0.0,97,0.00,BKN,OVC,0.04,0.0,WeatherDisplay:10.37,2013-04-25 12:45:00,
2013-04-25 07:50:00,34.9,34.1,30.08,NW,309,3.5,0.0,97,0.00,BKN,OVC,0.04,0.0,WeatherDisplay:10.37,2013-04-25 12:50:00,
2013-04-25 07:55:00,35.1,34.3,30.08,NW,324,5.8,5.8,97,0.00,BKN,OVC,0.04,0.0,WeatherDisplay:10.37,2013-04-25 12:55:00,
2013-04-25 08:00:00,35.1,33.8,30.08,NNW,327,5.8,5.8,95,0.00,BKN,OVC,0.04,0.0,WeatherDisplay:10.37,2013-04-25 13:00:00,
2013-04-25 08:05:00,35.2,33.4,30.08,NW,315,3.5,0.0,93,0.00,OVC,,0.04,0.0,WeatherDisplay:10.37,2013-04-25 13:05:00,
2013-04-25 08:10:00,35.6,34.0,30.08,NW,315,3.5,0.0,94,0.00,OVC,,0.04,0.0,WeatherDisplay:10.37,2013-04-25 13:10:00,
2013-04-25 08:15:00,35.8,34.0,30.11,NW,319,0.0,0.0,93,0.00,OVC,,0.04,0.0,WeatherDisplay:10.37,2013-04-25 13:15:00,
2013-04-25 08:20:00,36.1,34.3,30.11,NW,316,3.5,3.5,93,0.00,OVC,,0.04,0.0,WeatherDisplay:10.37,2013-04-25 13:20:00,
2013-04-25 08:25:00,36.1,33.8,30.11,West,265,5.8,5.8,91,0.00,OVC,,0.04,0.0,WeatherDisplay:10.37,2013-04-25 13:25:00,
2013-04-25 08:30:00,36.3,33.7,30.11,West,262,3.5,3.5,90,0.00,OVC,,0.04,0.0,WeatherDisplay:10.37,2013-04-25 13:30:00,
2013-04-25 08:35:00,36.7,34.0,30.11,NW,310,2.3,0.0,90,0.00,OVC,,0.04,0.0,WeatherDisplay:10.37,2013-04-25 13:35:00,
2013-04-25 08:40:00,36.9,34.2,30.11,SW,226,3.5,3.5,90,0.00,OVC,,0.04,0.0,WeatherDisplay:10.37,2013-04-25 13:40:00,
2013-04-25 08:45:00,36.9,32.2,30.11,NW,309,4.6,4.6,83,0.00,OVC,,0.04,0.0,WeatherDisplay:10.37,2013-04-25 13:45:00,
2013-04-25 08:50:00,36.9,31.6,30.11,NW,314,5.8,5.8,81,0.00,OVC,,0.04,0.0,WeatherDisplay:10.37,2013-04-25 13:50:00,
2013-04-25 08:55:00,37.2,32.2,30.11,WNW,298,3.6,3.6,82,0.00,OVC,,0.04,0.0,WeatherDisplay:10.37,2013-04-25 13:55:00,
2013-04-25 09:00:00,37.4,31.5,30.11,WNW,300,3.5,3.6,79,0.00,OVC,,0.04,0.0,WeatherDisplay:10.37,2013-04-25 14:00:00,
2013-04-25 09:05:00,37.4,32.1,30.11,WNW,298,3.5,3.5,81,0.00,OVC,,0.04,0.0,WeatherDisplay:10.37,2013-04-25 14:05:00,
2013-04-25 09:10:00,37.4,32.1,30.11,West,279,3.5,0.0,81,0.00,OVC,,0.04,0.0,WeatherDisplay:10.37,2013-04-25 14:10:00,
2013-04-25 09:15:00,37.6,32.6,30.11,NW,318,3.1,3.1,82,0.00,OVC,,0.04,0.0,WeatherDisplay:10.37,2013-04-25 14:15:00,
2013-04-25 09:20:00,37.9,32.6,30.11,WSW,251,3.5,3.5,81,0.00,OVC,,0.04,0.0,WeatherDisplay:10.37,2013-04-25 14:20:00,
2013-04-25 09:25:00,38.3,32.0,30.11,NNW,328,3.5,3.5,78,0.00,OVC,,0.04,0.0,WeatherDisplay:10.37,2013-04-25 14:25:00,
2013-04-25 09:30:00,38.7,31.7,30.14,WSW,252,4.0,4.0,76,0.00,OVC,,0.04,0.0,WeatherDisplay:10.37,2013-04-25 14:30:00,
2013-04-25 09:35:00,38.8,31.6,30.14,NW,312,4.6,4.6,75,0.00,OVC,,0.04,0.0,WeatherDisplay:10.37,2013-04-25 14:35:00,
2013-04-25 09:40:00,38.8,30.9,30.14,West,277,4.6,4.6,73,0.00,OVC,,0.04,0.0,WeatherDisplay:10.37,2013-04-25 14:40:00,
2013-04-25 09:45:00,38.8,31.3,30.14,WNW,288,4.6,4.6,74,0.00,OVC,,0.04,0.0,WeatherDisplay:10.37,2013-04-25 14:45:00,
2013-04-25 09:50:00,38.8,31.3,30.14,NNW,342,8.1,8.1,74,0.00,OVC,,0.04,0.0,WeatherDisplay:10.37,2013-04-25 14:50:00,
2013-04-25 09:55:00,39.2,32.3,30.14,WNW,288,3.5,3.5,76,0.00,OVC,,0.04,0.0,WeatherDisplay:10.37,2013-04-25 14:55:00,
2013-04-25 10:00:00,39.6,32.0,30.14,SW,230,3.5,3.5,74,0.00,OVC,,0.04,0.0,WeatherDisplay:10.37,2013-04-25 15:00:00,
2013-04-25 10:05:00,40.3,32.6,30.14,NW,312,3.5,3.5,74,0.00,OVC,,0.04,0.0,WeatherDisplay:10.37,2013-04-25 15:05:00,
2013-04-25 10:10:00,40.6,32.3,30.14,WNW,300,4.6,4.6,72,0.00,OVC,,0.04,0.0,WeatherDisplay:10.37,2013-04-25 15:10:00,
2013-04-25 10:15:00,40.6,31.6,30.14,WNW,287,3.5,3.5,70,0.00,OVC,,0.04,0.0,WeatherDisplay:10.37,2013-04-25 15:15:00,
2013-04-25 10:20:00,41.0,32.0,30.14,WNW,282,3.5,3.5,70,0.00,OVC,,0.04,0.0,WeatherDisplay:10.37,2013-04-25 15:20:00,
2013-04-25 10:25:00,41.0,30.5,30.14,NNW,334,5.8,5.8,66,0.00,OVC,,0.04,0.0,WeatherDisplay:10.37,2013-04-25 15:25:00,
2013-04-25 10:30:00,40.6,31.3,30.14,NW,312,3.5,3.5,69,0.00,OVC,,0.04,0.0,WeatherDisplay:10.37,2013-04-25 15:30:00,
2013-04-25 10:35:00,40.8,31.8,30.14,WSW,254,4.6,4.6,70,0.00,OVC,,0.04,0.0,WeatherDisplay:10.37,2013-04-25 15:35:00,
2013-04-25 10:40:00,40.6,32.3,30.14,NW,319,3.5,3.6,72,0.00,OVC,,0.04,0.0,WeatherDisplay:10.37,2013-04-25 15:40:00,
2013-04-25 10:45:00,40.6,32.0,30.14,West,269,5.8,5.8,71,0.00,OVC,,0.04,0.0,WeatherDisplay:10.37,2013-04-25 15:45:00,
2013-04-25 10:50:00,41.5,33.2,30.14,NW,306,5.8,5.8,72,0.00,OVC,,0.04,0.0,WeatherDisplay:10.37,2013-04-25 15:50:00,
2013-04-25 10:55:00,41.7,31.6,30.14,NW,320,3.6,3.6,67,0.00,OVC,,0.04,0.0,WeatherDisplay:10.37,2013-04-25 15:55:00,
2013-04-25 11:00:00,41.7,31.9,30.14,WNW,303,6.9,6.9,68,0.00,OVC,,0.04,0.0,WeatherDisplay:10.37,2013-04-25 16:00:00,
2013-04-25 11:05:00,42.4,32.3,30.14,WNW,291,9.2,9.2,67,0.00,BKN,OVC,0.04,0.0,WeatherDisplay:10.37,2013-04-25 16:05:00,
2013-04-25 11:10:00,42.8,31.8,30.14,WNW,284,3.5,3.5,65,0.00,BKN,OVC,0.04,0.0,WeatherDisplay:10.37,2013-04-25 16:10:00,
2013-04-25 11:15:00,42.8,31.8,30.17,WNW,290,3.5,3.5,65,0.00,BKN,OVC,0.04,0.0,WeatherDisplay:10.37,2013-04-25 16:15:00,
2013-04-25 11:20:00,42.3,31.3,30.17,NW,310,5.8,5.8,65,0.00,BKN,OVC,0.04,0.0,WeatherDisplay:10.37,2013-04-25 16:20:00,
2013-04-25 11:25:00,42.4,31.9,30.17,WSW,243,3.5,3.6,66,0.00,BKN,OVC,0.04,0.0,WeatherDisplay:10.37,2013-04-25 16:25:00,
2013-04-25 11:30:00,43.5,32.1,30.17,NW,315,4.6,4.6,64,0.00,BKN,OVC,0.04,0.0,WeatherDisplay:10.37,2013-04-25 16:30:00,
2013-04-25 11:35:00,43.7,31.9,30.17,West,268,3.5,3.5,63,0.00,BKN,OVC,0.04,0.0,WeatherDisplay:10.37,2013-04-25 16:35:00,
2013-04-25 11:40:00,43.3,32.0,30.17,NW,317,5.8,5.8,64,0.00,BKN,OVC,0.04,0.0,WeatherDisplay:10.37,2013-04-25 16:40:00,
2013-04-25 11:45:00,42.6,31.3,30.17,NW,316,5.8,5.8,64,0.00,OVC,,0.04,0.0,WeatherDisplay:10.37,2013-04-25 16:45:00,
2013-04-25 11:50:00,43.5,32.5,30.17,West,267,5.8,5.8,65,0.00,OVC,,0.04,0.0,WeatherDisplay:10.37,2013-04-25 16:50:00,
2013-04-25 11:55:00,44.8,32.9,30.17,NW,308,9.2,9.2,63,0.00,OVC,,0.04,0.0,WeatherDisplay:10.37,2013-04-25 16:55:00,
2013-04-25 12:00:00,44.4,32.6,30.17,West,263,4.6,4.6,63,0.00,OVC,,0.04,0.0,WeatherDisplay:10.37,2013-04-25 17:00:00,
2013-04-25 12:05:00,43.7,31.9,30.17,WNW,297,3.5,3.5,63,0.00,OVC,,0.04,0.0,WeatherDisplay:10.37,2013-04-25 17:05:00,
2013-04-25 12:10:00,43.9,32.1,30.17,NW,319,5.8,5.8,63,0.00,OVC,,0.04,0.0,WeatherDisplay:10.37,2013-04-25 17:10:00,
2013-04-25 12:15:00,44.2,31.2,30.17,WNW,297,4.6,4.6,60,0.00,OVC,,0.04,0.0,WeatherDisplay:10.37,2013-04-25 17:15:00,
2013-04-25 12:20:00,44.2,32.4,30.17,WSW,244,5.8,5.8,63,0.00,OVC,,0.04,0.0,WeatherDisplay:10.37,2013-04-25 17:20:00,
2013-04-25 12:25:00,43.9,32.1,30.17,WNW,295,5.8,5.8,63,0.00,OVC,,0.04,0.0,WeatherDisplay:10.37,2013-04-25 17:25:00,
2013-04-25 12:30:00,43.7,31.9,30.17,WNW,300,5.8,5.8,63,0.00,OVC,,0.04,0.0,WeatherDisplay:10.37,2013-04-25 17:30:00,
2013-04-25 12:35:00,44.2,32.4,30.17,West,268,3.5,3.5,63,0.00,OVC,,0.04,0.0,WeatherDisplay:10.37,2013-04-25 17:35:00,
2013-04-25 12:40:00,45.9,33.6,30.17,WNW,296,9.2,9.2,62,0.00,OVC,,0.04,0.0,WeatherDisplay:10.37,2013-04-25 17:40:00,
2013-04-25 12:45:00,46.4,31.5,30.17,NW,307,5.4,5.4,56,0.00,OVC,,0.04,0.0,WeatherDisplay:10.37,2013-04-25 17:45:00,
2013-04-25 12:50:00,45.7,32.2,30.17,NW,312,3.5,3.5,59,0.00,OVC,,0.04,0.0,WeatherDisplay:10.37,2013-04-25 17:50:00,
2013-04-25 12:55:00,44.8,30.5,30.17,WNW,295,5.8,5.8,57,0.00,OVC,,0.04,0.0,WeatherDisplay:10.37,2013-04-25 17:55:00,
2013-04-25 13:00:00,45.3,31.0,30.17,WNW,284,11.5,11.5,57,0.00,OVC,,0.04,0.0,WeatherDisplay:10.37,2013-04-25 18:00:00,
2013-04-25 13:05:00,45.9,31.5,30.17,NNW,335,5.8,5.8,57,0.00,BKN,OVC,0.04,0.0,WeatherDisplay:10.37,2013-04-25 18:05:00,
2013-04-25 13:10:00,46.0,31.2,30.17,SW,225,4.6,4.6,56,0.00,BKN,OVC,0.04,0.0,WeatherDisplay:10.37,2013-04-25 18:10:00,
2013-04-25 13:15:00,46.0,30.8,30.17,West,278,5.8,5.8,55,0.00,BKN,OVC,0.04,0.0,WeatherDisplay:10.37,2013-04-25 18:15:00,
2013-04-25 13:20:00,45.7,30.9,30.17,NW,304,3.5,3.5,56,0.00,BKN,OVC,0.04,0.0,WeatherDisplay:10.37,2013-04-25 18:20:00,
2013-04-25 13:25:00,45.5,30.3,30.17,WNW,288,8.1,8.1,55,0.00,BKN,OVC,0.04,0.0,WeatherDisplay:10.37,2013-04-25 18:25:00,
2013-04-25 13:29:00,45.9,31.5,30.20,SW,233,8.1,8.1,57,0.00,BKN,OVC,0.04,0.0,WeatherDisplay:10.37,2013-04-25 18:29:00,
2013-04-25 13:34:00,46.9,31.1,30.20,West,276,3.5,3.6,54,0.00,BKN,OVC,0.04,0.0,WeatherDisplay:10.37,2013-04-25 18:34:00,
2013-04-25 13:39:00,46.9,31.6,30.20,NW,322,3.5,3.5,55,0.00,BKN,OVC,0.04,0.0,WeatherDisplay:10.37,2013-04-25 18:39:00,
2013-04-25 13:44:00,46.4,31.1,30.20,NW,319,3.5,3.5,55,0.00,BKN,OVC,0.04,0.0,WeatherDisplay:10.37,2013-04-25 18:44:00,
2013-04-25 13:49:00,46.8,31.0,30.20,NNW,330,3.5,3.6,54,0.00,BKN,OVC,0.04,0.0,WeatherDisplay:10.37,2013-04-25 18:49:00,
2013-04-25 13:54:00,46.8,31.0,30.20,SW,235,3.5,0.0,54,0.00,BKN,OVC,0.04,0.0,WeatherDisplay:10.37,2013-04-25 18:54:00,
2013-04-25 13:59:00,46.2,30.9,30.20,WNW,298,5.8,5.8,55,0.00,BKN,OVC,0.04,0.0,WeatherDisplay:10.37,2013-04-25 18:59:00,
2013-04-25 14:04:00,46.4,30.2,30.20,West,270,5.8,5.8,53,0.00,BKN,OVC,0.04,0.0,WeatherDisplay:10.37,2013-04-25 19:04:00,
2013-04-25 14:09:00,46.8,31.0,30.20,NNW,342,5.8,5.8,54,0.00,BKN,OVC,0.04,0.0,WeatherDisplay:10.37,2013-04-25 19:09:00,
2013-04-25 14:14:00,46.4,30.6,30.20,West,272,3.5,3.5,54,0.00,BKN,OVC,0.04,0.0,WeatherDisplay:10.37,2013-04-25 19:14:00,
2013-04-25 14:19:00,46.2,30.9,30.20,WSW,248,3.5,3.5,55,0.00,BKN,OVC,0.04,0.0,WeatherDisplay:10.37,2013-04-25 19:19:00,
2013-04-25 14:24:00,46.8,31.0,30.20,WNW,291,5.8,5.8,54,0.00,BKN,OVC,0.04,0.0,WeatherDisplay:10.37,2013-04-25 19:24:00,
2013-04-25 14:29:00,46.8,30.5,30.20,WNW,298,5.8,5.8,53,0.00,BKN,OVC,0.04,0.0,WeatherDisplay:10.37,2013-04-25 19:29:00,
2013-04-25 14:34:00,46.9,31.1,30.20,NW,315,5.8,5.8,54,0.00,BKN,OVC,0.04,0.0,WeatherDisplay:10.37,2013-04-25 19:34:00,
2013-04-25 14:39:00,46.4,31.1,30.20,WNW,297,3.5,3.5,55,0.00,BKN,OVC,0.04,0.0,WeatherDisplay:10.37,2013-04-25 19:39:00,
2013-04-25 14:44:00,46.4,30.6,30.20,SSW,194,3.5,3.5,54,0.00,BKN,OVC,0.04,0.0,WeatherDisplay:10.37,2013-04-25 19:44:00,
2013-04-25 14:49:00,46.2,31.4,30.20,NW,322,3.6,3.6,56,0.00,BKN,OVC,0.04,0.0,WeatherDisplay:10.37,2013-04-25 19:49:00,
2013-04-25 14:54:00,46.6,31.3,30.20,NW,324,3.6,3.6,55,0.00,BKN,OVC,0.04,0.0,WeatherDisplay:10.37,2013-04-25 19:54:00,
2013-04-25 14:59:00,46.8,31.4,30.20,West,277,5.8,5.8,55,0.00,BKN,OVC,0.04,0.0,WeatherDisplay:10.37,2013-04-25 19:59:00,
2013-04-25 15:04:00,46.9,31.1,30.20,NW,314,5.8,5.8,54,0.00,SCT,OVC,0.04,0.0,WeatherDisplay:10.37,2013-04-25 20:04:00,
2013-04-25 15:09:00,47.1,31.3,30.20,NW,304,6.9,6.9,54,0.00,SCT,OVC,0.04,0.0,WeatherDisplay:10.37,2013-04-25 20:09:00,
2013-04-25 15:14:00,47.3,31.5,30.20,NNW,332,3.5,3.5,54,0.00,SCT,OVC,0.04,0.0,WeatherDisplay:10.37,2013-04-25 20:14:00,
2013-04-25 15:19:00,47.8,32.0,30.20,WSW,240,5.8,5.8,54,0.00,SCT,OVC,0.04,0.0,WeatherDisplay:10.37,2013-04-25 20:19:00,
2013-04-25 15:24:00,47.8,32.0,30.20,WSW,241,4.6,4.6,54,0.00,SCT,OVC,0.04,0.0,WeatherDisplay:10.37,2013-04-25 20:24:00,
2013-04-25 15:29:00,47.7,31.4,30.20,NW,310,3.5,3.5,53,0.00,SCT,OVC,0.04,0.0,WeatherDisplay:10.37,2013-04-25 20:29:00,
2013-04-25 15:34:00,47.3,31.5,30.20,ENE,73,3.5,0.0,54,0.00,SCT,OVC,0.04,0.0,WeatherDisplay:10.37,2013-04-25 20:34:00,
2013-04-25 15:39:00,47.5,31.2,30.20,NW,305,3.5,3.5,53,0.00,SCT,OVC,0.04,0.0,WeatherDisplay:10.37,2013-04-25 20:39:00,
2013-04-25 15:44:00,47.7,31.4,30.20,West,260,3.5,3.5,53,0.00,SCT,OVC,0.04,0.0,WeatherDisplay:10.37,2013-04-25 20:44:00,
2013-04-25 15:49:00,48.0,32.2,30.20,NNW,337,3.5,0.0,54,0.00,SCT,OVC,0.04,0.0,WeatherDisplay:10.37,2013-04-25 20:49:00,
2013-04-25 15:54:00,47.7,31.4,30.20,NW,319,2.3,2.7,53,0.00,SCT,OVC,0.04,0.0,WeatherDisplay:10.37,2013-04-25 20:54:00,
2013-04-25 15:59:00,48.0,32.2,30.20,SSW,213,3.5,3.5,54,0.00,SCT,OVC,0.04,0.0,WeatherDisplay:10.37,2013-04-25 20:59:00,
2013-04-25 16:04:00,48.4,32.0,30.20,North,3,5.8,5.8,53,0.00,SCT,OVC,0.04,0.0,WeatherDisplay:10.37,2013-04-25 21:04:00,
2013-04-25 16:09:00,48.4,31.5,30.20,NW,316,2.3,2.7,52,0.00,SCT,OVC,0.04,0.0,WeatherDisplay:10.37,2013-04-25 21:09:00,
2013-04-25 16:14:00,48.2,31.9,30.20,NW,314,3.5,0.0,53,0.00,SCT,OVC,0.04,0.0,WeatherDisplay:10.37,2013-04-25 21:14:00,
2013-04-25 16:19:00,48.2,31.4,30.20,WSW,237,5.8,5.8,52,0.00,SCT,OVC,0.04,0.0,WeatherDisplay:10.37,2013-04-25 21:19:00,
2013-04-25 16:24:00,48.2,31.9,30.20,WSW,244,3.5,0.0,53,0.00,SCT,OVC,0.04,0.0,WeatherDisplay:10.37,2013-04-25 21:24:00,
2013-04-25 16:29:00,48.4,31.5,30.20,SW,231,3.5,3.5,52,0.00,SCT,OVC,0.04,0.0,WeatherDisplay:10.37,2013-04-25 21:29:00,
2013-04-25 16:34:00,49.1,32.7,30.20,SW,235,5.8,5.8,53,0.00,SCT,OVC,0.04,0.0,WeatherDisplay:10.37,2013-04-25 21:34:00,
2013-04-25 16:39:00,49.1,32.2,30.20,NNW,342,3.5,0.0,52,0.00,SCT,OVC,0.04,0.0,WeatherDisplay:10.37,2013-04-25 21:39:00,
2013-04-25 16:44:00,48.7,31.9,30.20,West,274,6.9,6.9,52,0.00,SCT,OVC,0.04,0.0,WeatherDisplay:10.37,2013-04-25 21:44:00,
2013-04-25 16:49:00,48.9,32.0,30.20,NNW,333,4.6,4.6,52,0.00,SCT,OVC,0.04,0.0,WeatherDisplay:10.37,2013-04-25 21:49:00,
2013-04-25 16:54:00,48.4,31.5,30.20,WSW,258,3.5,3.5,52,0.00,SCT,OVC,0.04,0.0,WeatherDisplay:10.37,2013-04-25 21:54:00,
2013-04-25 16:59:00,48.0,31.7,30.20,SSW,213,3.5,0.0,53,0.00,SCT,OVC,0.04,0.0,WeatherDisplay:10.37,2013-04-25 21:59:00,
2013-04-25 17:04:00,48.4,31.5,30.20,West,260,3.5,3.5,52,0.00,SCT,OVC,0.04,0.0,WeatherDisplay:10.37,2013-04-25 22:04:00,
2013-04-25 17:09:00,48.7,31.9,30.20,WNW,293,3.5,3.5,52,0.00,SCT,OVC,0.04,0.0,WeatherDisplay:10.37,2013-04-25 22:09:00,
2013-04-25 17:14:00,48.7,31.9,30.20,SW,219,5.8,5.8,52,0.00,SCT,OVC,0.04,0.0,WeatherDisplay:10.37,2013-04-25 22:14:00,
2013-04-25 17:19:00,48.7,31.9,30.20,West,272,3.5,3.5,52,0.00,SCT,OVC,0.04,0.0,WeatherDisplay:10.37,2013-04-25 22:19:00,
2013-04-25 17:24:00,48.9,32.0,30.20,West,274,5.8,5.8,52,0.00,SCT,OVC,0.04,0.0,WeatherDisplay:10.37,2013-04-25 22:24:00,
2013-04-25 17:29:00,49.1,32.2,30.20,SW,216,9.2,9.2,52,0.00,SCT,OVC,0.04,0.0,WeatherDisplay:10.37,2013-04-25 22:29:00,
2013-04-25 17:34:00,49.1,32.2,30.20,SW,221,6.9,6.9,52,0.00,SCT,OVC,0.04,0.0,WeatherDisplay:10.37,2013-04-25 22:34:00,
2013-04-25 17:39:00,48.9,32.0,30.20,WSW,249,6.9,6.9,52,0.00,SCT,OVC,0.04,0.0,WeatherDisplay:10.37,2013-04-25 22:39:00,
2013-04-25 17:44:00,49.1,32.2,30.20,WSW,246,8.1,8.1,52,0.00,SCT,OVC,0.04,0.0,WeatherDisplay:10.37,2013-04-25 22:44:00,
2013-04-25 17:49:00,49.1,32.2,30.20,SW,224,12.7,12.7,52,0.00,SCT,OVC,0.04,0.0,WeatherDisplay:10.37,2013-04-25 22:49:00,
2013-04-25 17:54:00,49.1,32.2,30.20,SW,234,8.1,8.1,52,0.00,SCT,OVC,0.04,0.0,WeatherDisplay:10.37,2013-04-25 22:54:00,
2013-04-25 17:59:00,48.7,31.9,30.20,SW,221,5.8,5.8,52,0.00,SCT,OVC,0.04,0.0,WeatherDisplay:10.37,2013-04-25 22:59:00,
2013-04-25 18:04:00,48.4,31.5,30.20,WSW,243,8.1,8.1,52,0.00,FEW,OVC,0.04,0.0,WeatherDisplay:10.37,2013-04-25 23:04:00,
2013-04-25 18:09:00,48.4,31.5,30.20,SSW,204,8.1,8.1,52,0.00,FEW,OVC,0.04,0.0,WeatherDisplay:10.37,2013-04-25 23:09:00,
2013-04-25 18:14:00,48.4,31.5,30.20,West,263,5.8,5.8,52,0.00,FEW,OVC,0.04,0.0,WeatherDisplay:10.37,2013-04-25 23:14:00,
2013-04-25 18:19:00,48.4,31.5,30.20,SW,224,11.5,11.5,52,0.00,FEW,OVC,0.04,0.0,WeatherDisplay:10.37,2013-04-25 23:19:00,
2013-04-25 18:24:00,48.6,31.7,30.20,SW,218,8.1,8.1,52,0.00,FEW,OVC,0.04,0.0,WeatherDisplay:10.37,2013-04-25 23:24:00,
2013-04-25 18:29:00,48.9,32.0,30.20,SSW,198,8.1,8.1,52,0.00,FEW,OVC,0.04,0.0,WeatherDisplay:10.37,2013-04-25 23:29:00,
2013-04-25 18:34:00,49.1,32.2,30.20,SW,224,5.8,5.8,52,0.00,FEW,OVC,0.04,0.0,WeatherDisplay:10.37,2013-04-25 23:34:00,
2013-04-25 18:39:00,48.9,32.0,30.20,SSW,213,8.1,8.1,52,0.00,FEW,OVC,0.04,0.0,WeatherDisplay:10.37,2013-04-25 23:39:00,
2013-04-25 18:44:00,48.7,31.9,30.20,SW,226,9.2,9.2,52,0.00,FEW,OVC,0.04,0.0,WeatherDisplay:10.37,2013-04-25 23:44:00,
2013-04-25 18:49:00,48.6,31.7,30.20,SSW,208,6.9,6.9,52,0.00,FEW,OVC,0.04,0.0,WeatherDisplay:10.37,2013-04-25 23:49:00,
2013-04-25 18:54:00,48.0,31.7,30.20,SSW,203,8.1,8.1,53,0.00,FEW,OVC,0.04,0.0,WeatherDisplay:10.37,2013-04-25 23:54:00,
2013-04-25 18:59:00,47.7,31.4,30.20,SW,225,5.8,5.8,53,0.00,FEW,OVC,0.04,0.0,WeatherDisplay:10.37,2013-04-25 23:59:00,
2013-04-25 19:04:00,47.3,31.0,30.20,SSW,204,5.8,5.8,53,0.00,CLR,OVC,0.04,0.0,WeatherDisplay:10.37,2013-04-26 00:04:00,
2013-04-25 19:09:00,47.3,31.0,30.20,SW,215,5.8,5.8,53,0.00,CLR,OVC,0.04,0.0,WeatherDisplay:10.37,2013-04-26 00:09:00,
2013-04-25 19:14:00,46.9,30.7,30.20,SW,229,5.8,5.8,53,0.00,CLR,OVC,0.04,0.0,WeatherDisplay:10.37,2013-04-26 00:14:00,
2013-04-25 19:19:00,46.6,30.3,30.20,WSW,238,4.6,4.6,53,0.00,CLR,OVC,0.04,0.0,WeatherDisplay:10.37,2013-04-26 00:19:00,
2013-04-25 19:24:00,46.0,30.3,30.20,West,265,8.1,8.1,54,0.00,CLR,OVC,0.04,0.0,WeatherDisplay:10.37,2013-04-26 00:24:00,
2013-04-25 19:29:00,45.5,29.8,30.20,SSW,210,5.8,5.8,54,0.00,CLR,OVC,0.04,0.0,WeatherDisplay:10.37,2013-04-26 00:29:00,
2013-04-25 19:34:00,45.1,29.5,30.20,SW,228,5.8,5.8,54,0.00,CLR,OVC,0.04,0.0,WeatherDisplay:10.37,2013-04-26 00:34:00,
2013-04-25 19:39:00,44.8,29.1,30.20,WSW,238,8.1,8.1,54,0.00,CLR,OVC,0.04,0.0,WeatherDisplay:10.37,2013-04-26 00:39:00,
2013-04-25 19:44:00,44.4,29.2,30.20,SW,220,8.1,8.1,55,0.00,CLR,OVC,0.04,0.0,WeatherDisplay:10.37,2013-04-26 00:44:00,
2013-04-25 19:49:00,44.1,28.9,30.20,SSW,196,5.8,5.8,55,0.00,CLR,OVC,0.04,0.0,WeatherDisplay:10.37,2013-04-26 00:49:00,
2013-04-25 19:54:00,43.7,29.0,30.20,SSW,201,4.6,4.6,56,0.00,CLR,OVC,0.04,0.0,WeatherDisplay:10.37,2013-04-26 00:54:00,
2013-04-25 19:59:00,43.2,28.5,30.20,SW,231,4.6,4.6,56,0.00,CLR,OVC,0.04,0.0,WeatherDisplay:10.37,2013-04-26 00:59:00,
2013-04-25 20:04:00,42.8,28.6,30.20,SSW,211,5.8,5.8,57,0.00,CLR,OVC,0.04,0.0,WeatherDisplay:10.37,2013-04-26 01:04:00,
2013-04-25 20:09:00,42.4,28.7,30.20,SSW,201,3.5,3.5,58,0.00,CLR,OVC,0.04,0.0,WeatherDisplay:10.37,2013-04-26 01:09:00,
2013-04-25 20:14:00,41.9,28.6,30.20,SW,217,3.5,0.0,59,0.00,CLR,OVC,0.04,0.0,WeatherDisplay:10.37,2013-04-26 01:14:00,
2013-04-25 20:19:00,41.5,28.3,30.20,SSW,196,0.0,0.0,59,0.00,CLR,OVC,0.04,0.0,WeatherDisplay:10.37,2013-04-26 01:19:00,
2013-04-25 20:24:00,41.0,28.6,30.20,SSW,196,0.0,0.0,61,0.00,CLR,OVC,0.04,0.0,WeatherDisplay:10.37,2013-04-26 01:24:00,
2013-04-25 20:29:00,40.5,28.5,30.23,SSW,196,0.0,0.0,62,0.00,CLR,OVC,0.04,0.0,WeatherDisplay:10.37,2013-04-26 01:29:00,
2013-04-25 20:34:00,40.1,28.5,30.23,SSW,196,0.0,0.0,63,0.00,CLR,OVC,0.04,0.0,WeatherDisplay:10.37,2013-04-26 01:34:00,
2013-04-25 20:39:00,39.6,28.4,30.23,SSW,196,0.0,0.0,64,0.00,CLR,OVC,0.04,0.0,WeatherDisplay:10.37,2013-04-26 01:39:00,
2013-04-25 20:44:00,38.8,27.7,30.23,SSW,196,0.0,0.0,64,0.00,CLR,OVC,0.04,0.0,WeatherDisplay:10.37,2013-04-26 01:44:00,
2013-04-25 20:49:00,38.3,27.2,30.23,SSW,196,0.0,0.0,64,0.00,CLR,OVC,0.04,0.0,WeatherDisplay:10.37,2013-04-26 01:49:00,
2013-04-25 20:54:00,37.8,26.7,30.23,SSW,196,0.0,0.0,64,0.00,CLR,OVC,0.04,0.0,WeatherDisplay:10.37,2013-04-26 01:54:00,
2013-04-25 20:59:00,37.2,26.5,30.23,SSW,196,0.0,0.0,65,0.00,CLR,OVC,0.04,0.0,WeatherDisplay:10.37,2013-04-26 01:59:00,
2013-04-25 21:04:00,36.9,26.6,30.23,SSW,196,0.0,0.0,66,0.00,CLR,OVC,0.04,0.0,WeatherDisplay:10.37,2013-04-26 02:04:00,
2013-04-25 21:09:00,36.3,26.0,30.23,SSW,196,0.0,0.0,66,0.00,CLR,OVC,0.04,0.0,WeatherDisplay:10.37,2013-04-26 02:09:00,
2013-04-25 21:14:00,35.8,25.5,30.23,SSW,196,0.0,0.0,66,0.00,CLR,OVC,0.04,0.0,WeatherDisplay:10.37,2013-04-26 02:14:00,
2013-04-25 21:19:00,35.4,25.5,30.23,SSW,196,0.0,0.0,67,0.00,CLR,OVC,0.04,0.0,WeatherDisplay:10.37,2013-04-26 02:19:00,
2013-04-25 21:24:00,35.1,25.6,30.23,SSW,196,0.0,0.0,68,0.00,CLR,OVC,0.04,0.0,WeatherDisplay:10.37,2013-04-26 02:24:00,
2013-04-25 21:29:00,34.7,25.2,30.23,SSW,196,0.0,0.0,68,0.00,CLR,OVC,0.04,0.0,WeatherDisplay:10.37,2013-04-26 02:29:00,
2013-04-25 21:34:00,34.3,25.2,30.23,SSW,196,0.0,0.0,69,0.00,CLR,OVC,0.04,0.0,WeatherDisplay:10.37,2013-04-26 02:34:00,
2013-04-25 21:38:00,34.0,24.9,30.23,SSW,196,0.0,0.0,69,0.00,CLR,OVC,0.04,0.0,WeatherDisplay:10.37,2013-04-26 02:38:00,
2013-04-25 21:43:00,33.8,25.0,30.26,SSW,196,0.0,0.0,70,0.00,CLR,OVC,0.04,0.0,WeatherDisplay:10.37,2013-04-26 02:43:00,
2013-04-25 21:48:00,33.6,25.2,30.26,SSW,196,0.0,0.0,71,0.00,CLR,OVC,0.04,0.0,WeatherDisplay:10.37,2013-04-26 02:48:00,
2013-04-25 21:53:00,33.4,25.0,30.26,SSW,196,0.0,0.0,71,0.00,CLR,OVC,0.04,0.0,WeatherDisplay:10.37,2013-04-26 02:53:00,
2013-04-25 21:58:00,33.4,25.0,30.26,SSW,196,0.0,0.0,71,0.00,CLR,OVC,0.04,0.0,WeatherDisplay:10.37,2013-04-26 02:58:00,
2013-04-25 22:03:00,33.3,25.2,30.26,SSW,196,0.0,0.0,72,0.00,CLR,OVC,0.04,0.0,WeatherDisplay:10.37,2013-04-26 03:03:00,
2013-04-25 22:08:00,33.3,25.5,30.26,SSW,196,0.0,0.0,73,0.00,CLR,OVC,0.04,0.0,WeatherDisplay:10.37,2013-04-26 03:08:00,
2013-04-25 22:13:00,33.1,25.4,30.26,SSW,196,0.0,0.0,73,0.00,CLR,OVC,0.04,0.0,WeatherDisplay:10.37,2013-04-26 03:13:00,
2013-04-25 22:18:00,33.1,25.4,30.26,SSW,196,0.0,0.0,73,0.00,CLR,OVC,0.04,0.0,WeatherDisplay:10.37,2013-04-26 03:18:00,
2013-04-25 22:23:00,32.9,25.5,30.26,SSW,196,0.0,0.0,74,0.00,CLR,OVC,0.04,0.0,WeatherDisplay:10.37,2013-04-26 03:23:00,
2013-04-25 22:28:00,32.9,25.5,30.26,SSW,196,0.0,0.0,74,0.00,CLR,OVC,0.04,0.0,WeatherDisplay:10.37,2013-04-26 03:28:00,
2013-04-25 22:33:00,32.7,25.3,30.26,SSW,196,0.0,0.0,74,0.00,CLR,OVC,0.04,0.0,WeatherDisplay:10.37,2013-04-26 03:33:00,
2013-04-25 22:38:00,32.7,25.7,30.26,SSW,196,0.0,0.0,75,0.00,CLR,OVC,0.04,0.0,WeatherDisplay:10.37,2013-04-26 03:38:00,
2013-04-25 22:43:00,32.5,25.5,30.26,SSW,196,0.0,0.0,75,0.00,CLR,OVC,0.04,0.0,WeatherDisplay:10.37,2013-04-26 03:43:00,
2013-04-25 22:48:00,32.5,25.5,30.26,SSW,196,0.0,0.0,75,0.00,CLR,OVC,0.04,0.0,WeatherDisplay:10.37,2013-04-26 03:48:00,
2013-04-25 22:53:00,32.4,25.3,30.26,SSW,196,0.0,0.0,75,0.00,CLR,OVC,0.04,0.0,WeatherDisplay:10.37,2013-04-26 03:53:00,
2013-04-25 22:58:00,32.2,25.1,30.26,SSW,196,0.0,0.0,75,0.00,CLR,OVC,0.04,0.0,WeatherDisplay:10.37,2013-04-26 03:58:00,
2013-04-25 23:01:00,32.2,25.5,30.26,SSW,196,0.0,0.0,76,0.00,CLR,OVC,0.04,0.0,WeatherDisplay:10.37,2013-04-26 04:01:00,
2013-04-25 23:06:00,32.2,25.5,30.26,SSW,196,0.0,0.0,76,0.00,CLR,OVC,0.04,0.0,WeatherDisplay:10.37,2013-04-26 04:06:00,
2013-04-25 23:11:00,32.2,25.5,30.26,SSW,196,0.0,0.0,76,0.00,CLR,OVC,0.04,0.0,WeatherDisplay:10.37,2013-04-26 04:11:00,
2013-04-25 23:16:00,32.2,25.8,30.26,SSW,196,0.0,0.0,77,0.00,CLR,OVC,0.04,0.0,WeatherDisplay:10.37,2013-04-26 04:16:00,
2013-04-25 23:21:00,32.2,25.8,30.26,SSW,196,0.0,0.0,77,0.00,CLR,OVC,0.04,0.0,WeatherDisplay:10.37,2013-04-26 04:21:00,
2013-04-25 23:26:00,32.2,25.8,30.26,SSW,196,0.0,0.0,77,0.00,CLR,OVC,0.04,0.0,WeatherDisplay:10.37,2013-04-26 04:26:00,
2013-04-25 23:31:00,32.2,25.8,30.26,SSW,196,0.0,0.0,77,0.00,CLR,OVC,0.04,0.0,WeatherDisplay:10.37,2013-04-26 04:31:00,
2013-04-25 23:36:00,32.4,26.3,30.26,SSW,196,0.0,0.0,78,0.00,CLR,OVC,0.04,0.0,WeatherDisplay:10.37,2013-04-26 04:36:00,
2013-04-25 23:41:00,32.5,26.4,30.26,SSW,196,0.0,0.0,78,0.00,CLR,OVC,0.04,0.0,WeatherDisplay:10.37,2013-04-26 04:41:00,
2013-04-25 23:46:00,32.5,26.4,30.26,SSW,196,0.0,0.0,78,0.00,CLR,OVC,0.04,0.0,WeatherDisplay:10.37,2013-04-26 04:46:00,
2013-04-25 23:51:00,32.7,26.6,30.26,SSW,196,0.0,0.0,78,0.00,CLR,OVC,0.04,0.0,WeatherDisplay:10.37,2013-04-26 04:51:00,
2013-04-25 23:56:00,32.9,26.8,30.26,SSW,196,0.0,0.0,78,0.00,CLR,OVC,0.04,0.0,WeatherDisplay:10.37,2013-04-26 04:56:00,